createdAt,value
2024-01-15T00:00:28.556Z,84.44
2024-01-15T00:02:59.109Z,85.17
2024-01-15T00:05:29.810Z,85.34
2024-01-15T00:08:00.385Z,85.47
2024-01-15T00:10:31.431Z,85.73
2024-01-15T00:13:02.205Z,85.12
2024-01-15T00:15:33.686Z,85.09
2024-01-15T00:18:05.015Z,85.25
2024-01-15T00:20:37.200Z,85.37
2024-01-15T00:23:08.294Z,84.87
2024-01-15T00:25:38.728Z,84.71
2024-01-15T00:28:09.251Z,84.48
2024-01-15T00:30:39.851Z,84.46
2024-01-15T00:33:12.274Z,84.26
2024-01-15T00:35:43.221Z,84.76
2024-01-15T00:38:15.483Z,84.36
2024-01-15T00:40:46.333Z,84.21
2024-01-15T00:43:21.094Z,84.12
2024-01-15T00:45:51.940Z,84.36
2024-01-15T00:48:24.368Z,84.11
2024-01-15T00:50:55.539Z,84.11
2024-01-15T00:53:27.869Z,84.03
2024-01-15T00:55:59.240Z,84.07
2024-01-15T00:58:30.285Z,84.27
2024-01-15T01:01:00.922Z,84.72
2024-01-15T01:03:31.482Z,84.84
2024-01-15T01:06:02.116Z,85.17
2024-01-15T01:08:32.865Z,85.44
2024-01-15T01:11:03.522Z,85.71
2024-01-15T01:13:34.535Z,86.67
2024-01-15T01:16:05.422Z,86.66
2024-01-15T01:18:37.496Z,87.17
2024-01-15T01:21:08.265Z,87.62
2024-01-15T01:23:38.974Z,87.91
2024-01-15T01:26:09.601Z,88.08
2024-01-15T01:28:40.215Z,88.18
2024-01-15T01:31:10.841Z,87.98
2024-01-15T01:33:41.938Z,88.20
2024-01-15T01:36:12.618Z,88.06
2024-01-15T01:38:44.750Z,88.07
2024-01-15T01:41:16.358Z,88.11
2024-01-15T01:43:46.938Z,88.75
2024-01-15T01:46:19.244Z,89.35
2024-01-15T01:48:49.991Z,89.49
2024-01-15T01:51:22.278Z,89.24
2024-01-15T01:53:53.710Z,89.57
2024-01-15T01:56:24.194Z,89.42
2024-01-15T01:58:55.224Z,89.56
2024-01-15T02:01:25.934Z,89.34
2024-01-15T02:03:57.694Z,89.27
2024-01-15T02:06:28.559Z,89.04
2024-01-15T02:08:59.378Z,89.03
2024-01-15T02:11:29.874Z,88.77
2024-01-15T02:14:00.513Z,88.61
2024-01-15T02:16:31.034Z,88.09
2024-01-15T02:19:01.772Z,88.41
2024-01-15T02:21:33.589Z,88.24
2024-01-15T02:24:04.355Z,87.70
2024-01-15T02:26:36.734Z,88.24
2024-01-15T02:29:12.153Z,87.27
2024-01-15T02:31:42.854Z,87.33
2024-01-15T02:34:13.683Z,86.80
2024-01-15T02:36:44.239Z,86.83
2024-01-15T02:39:14.847Z,86.38
2024-01-15T02:41:45.407Z,86.22
2024-01-15T02:44:15.995Z,86.65
2024-01-15T02:46:46.495Z,86.49
2024-01-15T02:49:17.086Z,86.47
2024-01-15T02:51:47.996Z,86.37
2024-01-15T02:54:18.619Z,86.13
2024-01-15T02:56:49.179Z,85.64
2024-01-15T02:59:19.793Z,85.79
2024-01-15T03:01:50.369Z,85.94
2024-01-15T03:04:21.033Z,85.34
2024-01-15T03:06:51.572Z,85.37
2024-01-15T03:09:22.269Z,85.03
2024-01-15T03:11:52.824Z,84.93
2024-01-15T03:14:24.967Z,83.97
2024-01-15T03:16:57.615Z,83.62
2024-01-15T03:19:28.594Z,84.11
2024-01-15T03:21:59.296Z,83.98
2024-01-15T03:24:30.080Z,84.49
2024-01-15T03:27:00.657Z,84.69
2024-01-15T03:29:31.228Z,84.23
2024-01-15T03:32:02.175Z,83.99
2024-01-15T03:34:32.843Z,83.37
2024-01-15T03:37:03.504Z,83.91
2024-01-15T03:39:34.187Z,83.70
2024-01-15T03:42:05.241Z,83.57
2024-01-15T03:44:35.769Z,83.52
2024-01-15T03:47:09.507Z,83.27
2024-01-15T03:49:40.201Z,83.08
2024-01-15T03:52:10.853Z,83.07
2024-01-15T03:54:41.467Z,83.29
2024-01-15T03:57:12.021Z,82.34
2024-01-15T03:59:43.703Z,82.56
2024-01-15T04:02:14.278Z,82.96
2024-01-15T04:04:45.619Z,83.16
2024-01-15T04:07:16.217Z,82.83
2024-01-15T04:09:46.814Z,82.76
2024-01-15T04:12:17.353Z,82.62
2024-01-15T04:14:47.804Z,82.80
2024-01-15T04:17:18.853Z,82.61
2024-01-15T04:19:49.497Z,82.55
2024-01-15T04:22:20.051Z,82.34
2024-01-15T04:24:50.691Z,82.47
2024-01-15T04:27:21.241Z,82.69
2024-01-15T04:29:51.942Z,82.57
2024-01-15T04:32:22.500Z,82.67
2024-01-15T04:34:54.388Z,82.48
2024-01-15T04:37:25.222Z,82.27
2024-01-15T04:39:56.254Z,82.50
2024-01-15T04:42:27.392Z,82.02
2024-01-15T04:44:59.434Z,81.70
2024-01-15T04:47:29.998Z,81.40
2024-01-15T04:50:02.318Z,81.88
2024-01-15T04:52:32.805Z,81.42
2024-01-15T04:55:03.555Z,81.68
2024-01-15T04:57:34.243Z,81.57
2024-01-15T05:00:06.026Z,81.54
2024-01-15T05:02:36.695Z,81.81
2024-01-15T05:05:08.694Z,81.10
2024-01-15T05:07:39.227Z,80.94
2024-01-15T05:10:09.984Z,81.30
2024-01-15T05:12:40.708Z,80.74
2024-01-15T05:15:11.406Z,81.23
2024-01-15T05:17:42.194Z,81.38
2024-01-15T05:20:13.261Z,81.46
2024-01-15T05:22:43.912Z,82.03
2024-01-15T05:25:14.599Z,81.87
2024-01-15T05:27:45.323Z,81.69
2024-01-15T05:30:16.247Z,81.94
2024-01-15T05:32:46.833Z,81.64
2024-01-15T05:35:17.498Z,81.72
2024-01-15T05:37:48.245Z,81.54
2024-01-15T05:40:18.814Z,80.94
2024-01-15T05:42:49.499Z,80.76
2024-01-15T05:45:20.047Z,80.78
2024-01-15T05:47:50.688Z,80.76
2024-01-15T05:50:21.254Z,80.61
2024-01-15T05:52:52.017Z,80.60
2024-01-15T05:55:22.573Z,81.84
2024-01-15T05:57:53.120Z,82.49
2024-01-15T06:00:23.832Z,83.25
2024-01-15T06:02:54.301Z,83.58
2024-01-15T06:05:24.857Z,83.67
2024-01-15T06:07:55.544Z,83.30
2024-01-15T06:10:26.153Z,83.05
2024-01-15T06:12:56.643Z,82.73
2024-01-15T06:15:27.280Z,82.42
2024-01-15T06:17:57.908Z,82.49
2024-01-15T06:20:28.445Z,82.54
2024-01-15T06:22:58.918Z,82.09
2024-01-15T06:25:29.384Z,81.75
2024-01-15T06:27:59.997Z,81.36
2024-01-15T06:30:31.189Z,81.67
2024-01-15T06:33:01.868Z,81.76
2024-01-15T06:35:32.441Z,82.04
2024-01-15T06:38:02.943Z,82.34
2024-01-15T06:40:33.559Z,82.38
2024-01-15T06:43:04.127Z,82.31
2024-01-15T06:45:34.961Z,81.91
2024-01-15T06:48:05.948Z,82.00
2024-01-15T06:50:36.857Z,81.46
2024-01-15T06:53:08.201Z,82.09
2024-01-15T06:55:39.524Z,81.26
2024-01-15T06:58:10.160Z,81.47
2024-01-15T07:00:42.569Z,81.78
2024-01-15T07:03:13.186Z,81.58
2024-01-15T07:05:43.911Z,81.36
2024-01-15T07:08:14.443Z,80.72
2024-01-15T07:10:45.311Z,80.29
2024-01-15T07:13:15.826Z,79.82
2024-01-15T07:15:46.497Z,80.06
2024-01-15T07:18:17.732Z,79.89
2024-01-15T07:20:50.198Z,79.75
2024-01-15T07:23:21.114Z,79.59
2024-01-15T07:25:52.979Z,79.14
2024-01-15T07:28:23.501Z,79.13
2024-01-15T07:30:56.245Z,78.81
2024-01-15T07:33:27.596Z,79.18
2024-01-15T07:36:00.602Z,78.81
2024-01-15T07:38:30.236Z,78.81
2024-01-15T07:41:00.826Z,78.45
2024-01-15T07:43:31.820Z,78.88
2024-01-15T07:46:03.772Z,79.27
2024-01-15T07:48:35.352Z,79.17
2024-01-15T07:51:06.294Z,78.79
2024-01-15T07:53:36.832Z,78.85
2024-01-15T07:56:07.420Z,79.79
2024-01-15T07:58:37.977Z,79.19
2024-01-15T08:01:10.261Z,79.25
2024-01-15T08:03:41.252Z,79.22
2024-01-15T08:06:13.572Z,78.79
2024-01-15T08:08:44.395Z,78.91
2024-01-15T08:11:16.525Z,78.79
2024-01-15T08:13:47.029Z,79.05
2024-01-15T08:16:19.295Z,78.71
2024-01-15T08:18:50.072Z,78.75
2024-01-15T08:21:21.700Z,78.69
2024-01-15T08:23:53.027Z,79.04
2024-01-15T08:26:23.568Z,78.98
2024-01-15T08:28:54.313Z,78.66
2024-01-15T08:31:25.135Z,78.65
2024-01-15T08:33:56.652Z,78.51
2024-01-15T08:36:28.936Z,78.46
2024-01-15T08:38:59.603Z,78.68
2024-01-15T08:41:30.109Z,78.49
2024-01-15T08:44:00.673Z,78.40
2024-01-15T08:46:31.364Z,78.41
2024-01-15T08:49:02.179Z,78.13
2024-01-15T08:51:32.885Z,78.31
2024-01-15T08:54:03.519Z,78.40
2024-01-15T08:56:34.119Z,78.50
2024-01-15T08:59:04.877Z,78.31
2024-01-15T09:01:35.477Z,78.54
2024-01-15T09:04:06.225Z,78.62
2024-01-15T09:06:39.636Z,78.92
2024-01-15T09:09:10.289Z,79.06
2024-01-15T09:11:42.366Z,78.62
2024-01-15T09:14:14.247Z,78.59
2024-01-15T09:16:45.100Z,78.99
2024-01-15T09:19:16.873Z,79.07
2024-01-15T09:21:47.518Z,78.57
2024-01-15T09:24:18.059Z,78.81
2024-01-15T09:26:50.233Z,78.33
2024-01-15T09:29:21.899Z,78.28
2024-01-15T09:31:53.326Z,78.55
2024-01-15T09:34:24.295Z,78.70
2024-01-15T09:36:54.896Z,78.04
2024-01-15T09:39:25.975Z,78.41
2024-01-15T09:41:56.857Z,78.42
2024-01-15T09:44:29.935Z,77.84
2024-01-15T09:47:01.477Z,77.88
2024-01-15T09:49:32.369Z,77.43
2024-01-15T09:52:09.490Z,77.13
2024-01-15T09:54:40.130Z,77.78
2024-01-15T09:57:10.750Z,77.48
2024-01-15T09:59:44.153Z,77.95
2024-01-15T10:02:18.277Z,77.37
2024-01-15T10:04:50.690Z,77.25
2024-01-15T10:07:23.058Z,76.86
2024-01-15T10:09:53.596Z,77.30
2024-01-15T10:12:27.833Z,76.94
2024-01-15T10:14:59.466Z,77.19
2024-01-15T10:17:30.543Z,77.20
2024-01-15T10:20:02.001Z,77.15
2024-01-15T10:25:04.931Z,76.25
2024-01-15T10:27:35.628Z,75.31
2024-01-15T10:30:08.295Z,75.99
2024-01-15T10:32:39.405Z,75.07
2024-01-15T10:35:10.516Z,74.77
2024-01-15T10:37:42.666Z,75.74
2024-01-15T10:40:14.859Z,75.73
2024-01-15T10:42:45.689Z,75.83
2024-01-15T10:45:16.756Z,76.37
2024-01-15T10:47:47.246Z,76.73
2024-01-15T10:50:18.973Z,76.52
2024-01-15T10:52:49.615Z,76.94
2024-01-15T10:55:21.266Z,76.58
2024-01-15T10:57:51.933Z,76.59
2024-01-15T11:00:23.218Z,76.47
2024-01-15T11:02:55.976Z,76.04
2024-01-15T11:05:28.664Z,76.01
2024-01-15T11:08:01.543Z,75.58
2024-01-15T11:10:51.170Z,75.66
2024-01-15T11:13:29.065Z,75.89
2024-01-15T11:16:07.987Z,75.75
2024-01-15T11:19:00.114Z,76.55
2024-01-15T11:21:31.563Z,76.82
2024-01-15T11:24:05.540Z,77.13
2024-01-15T11:26:50.061Z,77.62
2024-01-15T11:29:33.456Z,77.85
2024-01-15T11:32:09.219Z,78.17
2024-01-15T11:35:01.866Z,78.34
2024-01-15T11:37:55.850Z,78.62
2024-01-15T11:40:35.449Z,78.78
2024-01-15T11:43:10.992Z,79.09
2024-01-15T11:45:45.014Z,79.94
2024-01-15T11:48:18.632Z,80.42
2024-01-15T11:50:51.559Z,81.82
2024-01-15T11:53:46.346Z,83.70
2024-01-15T11:56:23.402Z,84.72
2024-01-15T11:58:54.351Z,84.97
2024-01-15T12:01:25.284Z,85.53
2024-01-15T12:03:58.910Z,85.77
2024-01-15T12:06:29.701Z,84.81
2024-01-15T12:09:11.319Z,84.92
2024-01-15T12:11:46.273Z,84.77
2024-01-15T12:14:17.457Z,84.56
2024-01-15T12:16:49.864Z,84.20
2024-01-15T12:19:24.602Z,84.75
2024-01-15T12:21:56.870Z,84.24
2024-01-15T12:24:28.657Z,83.42
2024-01-15T12:26:59.406Z,84.20
2024-01-15T12:29:31.869Z,83.64
2024-01-15T12:32:02.825Z,83.49
2024-01-15T12:34:36.279Z,83.39
2024-01-15T12:37:09.595Z,83.74
2024-01-15T12:39:40.303Z,84.05
2024-01-15T12:42:12.075Z,84.31
2024-01-15T12:44:44.990Z,84.93
2024-01-15T12:47:17.206Z,85.65
2024-01-15T12:50:06.013Z,86.39
2024-01-15T12:52:31.633Z,85.94
2024-01-15T12:55:04.131Z,86.31
2024-01-15T12:57:39.098Z,86.20
2024-01-15T13:00:11.754Z,85.44
2024-01-15T13:02:44.739Z,85.63
2024-01-15T13:05:18.523Z,85.59
2024-01-15T13:07:50.958Z,85.35
2024-01-15T13:10:22.863Z,85.17
2024-01-15T13:12:54.819Z,85.42
2024-01-15T13:15:25.586Z,85.07
2024-01-15T13:17:57.107Z,85.50
2024-01-15T13:20:27.762Z,85.02
2024-01-15T13:22:58.226Z,84.65
2024-01-15T13:25:29.017Z,84.75
2024-01-15T13:27:59.596Z,84.67
2024-01-15T13:30:30.230Z,84.40
2024-01-15T13:33:04.197Z,85.07
2024-01-15T13:35:37.336Z,84.28
2024-01-15T13:38:10.117Z,84.53
2024-01-15T13:40:40.947Z,84.18
2024-01-15T13:43:11.624Z,84.92
2024-01-15T13:45:43.713Z,87.81
2024-01-15T13:48:14.333Z,82.34
2024-01-15T13:50:45.298Z,79.93
2024-01-15T13:53:15.893Z,81.19
2024-01-15T13:55:46.788Z,81.78
2024-01-15T13:58:19.084Z,82.42
2024-01-15T14:00:50.136Z,82.35
2024-01-15T14:03:21.109Z,82.95
2024-01-15T14:05:52.145Z,82.76
2024-01-15T14:08:22.699Z,82.34
2024-01-15T14:10:54.500Z,82.19
2024-01-15T14:13:25.078Z,82.29
2024-01-15T14:15:58.248Z,82.47
2024-01-15T14:18:32.830Z,82.00
2024-01-15T14:21:02.546Z,82.31
2024-01-15T14:23:33.139Z,81.89
2024-01-15T14:26:06.192Z,82.98
2024-01-15T14:28:36.743Z,82.61
2024-01-15T14:31:08.973Z,82.31
2024-01-15T14:33:40.810Z,82.21
2024-01-15T14:36:11.781Z,81.72
2024-01-15T14:38:42.880Z,81.50
2024-01-15T14:41:13.357Z,81.73
2024-01-15T14:43:46.875Z,82.26
2024-01-15T14:46:18.345Z,81.91
2024-01-15T14:48:49.015Z,82.42
2024-01-15T14:51:19.945Z,81.44
2024-01-15T14:53:52.550Z,81.12
2024-01-15T14:56:22.994Z,81.46
2024-01-15T14:58:53.479Z,81.51
2024-01-15T15:01:24.717Z,81.68
2024-01-15T15:03:56.383Z,81.80
2024-01-15T15:06:28.954Z,81.77
2024-01-15T15:09:00.707Z,82.03
2024-01-15T15:11:31.590Z,81.88
2024-01-15T15:14:02.426Z,82.21
2024-01-15T15:16:35.466Z,82.03
2024-01-15T15:19:06.279Z,82.43
2024-01-15T15:21:39.248Z,81.94
2024-01-15T15:24:10.054Z,81.87
2024-01-15T15:26:40.643Z,82.33
2024-01-15T15:29:11.460Z,82.75
2024-01-15T15:31:42.693Z,83.14
2024-01-15T15:34:13.557Z,83.14
2024-01-15T15:36:45.940Z,84.06
2024-01-15T15:39:19.174Z,84.40
2024-01-15T15:41:51.859Z,85.22
2024-01-15T15:44:22.455Z,85.43
2024-01-15T15:46:53.127Z,85.93
2024-01-15T15:49:23.976Z,86.27
2024-01-15T15:51:55.361Z,86.23
2024-01-15T15:54:26.279Z,86.54
2024-01-15T15:56:58.350Z,86.32
2024-01-15T15:59:32.028Z,86.21
2024-01-15T16:02:04.358Z,86.22
2024-01-15T16:04:36.642Z,85.81
2024-01-15T16:07:09.195Z,86.17
2024-01-15T16:09:40.893Z,86.40
2024-01-15T16:12:13.297Z,86.05
2024-01-15T16:14:46.312Z,86.05
2024-01-15T16:23:15.228Z,85.76
2024-01-15T16:23:27.498Z,85.96
2024-01-15T16:23:41.446Z,86.33
2024-01-15T16:24:56.934Z,85.80
2024-01-15T16:27:27.354Z,86.22
2024-01-15T16:29:57.941Z,86.43
2024-01-15T16:32:29.172Z,86.74
2024-01-15T16:35:00.541Z,87.13
2024-01-15T16:37:31.321Z,87.17
2024-01-15T16:40:01.878Z,87.09
2024-01-15T16:42:33.084Z,87.49
2024-01-15T16:45:05.598Z,87.53
2024-01-15T16:47:36.186Z,87.47
2024-01-15T16:50:10.426Z,87.19
2024-01-15T16:52:41.302Z,87.16
2024-01-15T16:55:11.804Z,86.89
2024-01-15T16:57:42.806Z,86.52
2024-01-15T17:00:13.754Z,86.76
2024-01-15T17:02:44.886Z,87.07
2024-01-15T17:05:16.865Z,87.25
2024-01-15T17:07:48.760Z,87.23
2024-01-15T17:10:23.899Z,87.24
2024-01-15T17:12:57.750Z,86.67
2024-01-15T17:15:30.969Z,86.76
2024-01-15T17:18:01.625Z,87.31
2024-01-15T17:20:33.700Z,87.02
2024-01-15T17:23:05.532Z,87.45
2024-01-15T17:25:36.690Z,86.99
2024-01-15T17:28:08.914Z,87.26
2024-01-15T17:30:40.162Z,87.18
2024-01-15T17:33:10.747Z,87.18
2024-01-15T17:35:41.384Z,87.17
2024-01-15T17:38:17.113Z,87.13
2024-01-15T17:40:49.136Z,87.36
2024-01-15T17:43:21.737Z,87.14
2024-01-15T17:45:56.317Z,87.37
2024-01-15T17:48:26.917Z,87.25
2024-01-15T17:54:00.268Z,86.96
2024-01-15T17:56:30.960Z,86.77
2024-01-15T17:59:02.997Z,86.66
2024-01-15T18:01:34.555Z,86.81
2024-01-15T18:04:06.810Z,86.60
2024-01-15T18:06:37.893Z,86.26
2024-01-15T18:09:09.806Z,86.14
2024-01-15T18:11:40.725Z,86.43
2024-01-15T18:14:13.625Z,86.34
2024-01-15T18:16:45.897Z,86.46
2024-01-15T18:19:18.726Z,86.41
2024-01-15T18:21:49.400Z,86.41
2024-01-15T18:24:19.863Z,86.65
2024-01-15T18:26:54.406Z,86.62
2024-01-15T18:29:25.891Z,86.55
2024-01-15T18:31:59.301Z,86.35
2024-01-15T18:34:30.143Z,86.19
2024-01-15T18:37:01.231Z,86.10
2024-01-15T18:39:31.858Z,85.49
2024-01-15T18:42:04.319Z,84.48
2024-01-15T18:44:38.446Z,83.57
2024-01-15T18:47:09.247Z,82.75
2024-01-15T18:49:40.049Z,81.85
2024-01-15T18:52:13.368Z,81.70
2024-01-15T18:54:45.789Z,81.13
2024-01-15T18:57:16.777Z,79.09
2024-01-15T18:59:47.768Z,79.37
2024-01-15T19:02:20.028Z,78.27
2024-01-15T19:04:50.987Z,77.52
2024-01-15T19:07:22.844Z,77.73
2024-01-15T19:09:53.631Z,77.00
2024-01-15T19:12:27.503Z,76.92
2024-01-15T19:14:58.172Z,76.37
2024-01-15T19:17:32.767Z,76.61
2024-01-15T19:20:07.444Z,76.04
2024-01-15T19:22:44.213Z,76.14
2024-01-15T19:25:15.520Z,75.78
2024-01-15T19:27:47.867Z,76.17
2024-01-15T19:30:20.890Z,76.61
2024-01-15T19:32:51.955Z,76.30
2024-01-15T19:35:22.982Z,75.71
2024-01-15T19:37:54.073Z,75.26
2024-01-15T19:40:27.033Z,76.21
2024-01-15T19:42:58.609Z,75.67
2024-01-15T19:45:29.813Z,75.95
2024-01-15T19:48:01.542Z,75.96
2024-01-15T19:50:32.281Z,76.40
2024-01-15T19:53:02.961Z,76.73
2024-01-15T19:55:33.826Z,76.85
2024-01-15T19:58:06.231Z,76.74
2024-01-15T20:00:36.906Z,76.75
2024-01-15T20:03:07.960Z,76.99
2024-01-15T20:05:40.523Z,76.41
2024-01-15T20:08:11.310Z,76.51
2024-01-15T20:10:41.947Z,76.36
2024-01-15T20:13:12.866Z,76.37
2024-01-15T20:15:44.887Z,76.44
2024-01-15T20:18:16.316Z,75.72
2024-01-15T20:20:47.300Z,75.59
2024-01-15T20:23:21.196Z,76.44
2024-01-15T20:25:55.734Z,76.73
2024-01-15T20:28:27.615Z,75.85
2024-01-15T20:30:58.108Z,76.63
2024-01-15T20:33:30.627Z,76.83
2024-01-15T20:36:03.919Z,77.09
2024-01-15T20:38:35.522Z,76.63
2024-01-15T20:41:07.073Z,76.54
2024-01-15T20:43:38.024Z,76.57
2024-01-15T20:46:09.535Z,76.88
2024-01-15T20:48:40.668Z,76.44
2024-01-15T20:51:14.825Z,76.68
2024-01-15T20:53:46.209Z,75.72
2024-01-15T20:56:17.539Z,76.34
2024-01-15T20:58:49.628Z,75.65
2024-01-15T21:01:20.619Z,75.76
2024-01-15T21:03:51.178Z,75.68
2024-01-15T21:06:22.820Z,75.72
2024-01-15T21:08:55.087Z,75.62
2024-01-15T21:11:25.581Z,75.56
2024-01-15T21:13:56.046Z,75.46
2024-01-15T21:16:26.511Z,75.77
2024-01-15T21:18:57.559Z,75.68
2024-01-15T21:21:29.975Z,76.02
2024-01-15T21:24:00.757Z,75.64
2024-01-15T21:26:31.534Z,75.81
2024-01-15T21:29:02.938Z,76.06
2024-01-15T21:31:36.653Z,76.36
2024-01-15T21:34:10.198Z,75.82
2024-01-15T21:36:40.831Z,76.05
2024-01-15T21:39:12.994Z,75.76
2024-01-15T21:41:50.834Z,75.03
2024-01-15T21:44:24.235Z,75.32
2024-01-15T21:46:56.358Z,75.34
2024-01-15T21:49:26.973Z,75.65
2024-01-15T21:51:57.634Z,75.64
2024-01-15T21:54:28.099Z,75.87
2024-01-15T21:56:58.625Z,75.83
2024-01-15T21:59:30.179Z,76.33
2024-01-15T22:02:03.281Z,76.81
2024-01-15T22:04:36.454Z,76.96
2024-01-15T22:07:07.393Z,77.27
2024-01-15T22:09:38.243Z,76.24
2024-01-15T22:12:10.474Z,76.51
2024-01-15T22:14:44.153Z,76.43
2024-01-15T22:17:15.519Z,76.65
2024-01-15T22:19:48.022Z,76.94
2024-01-15T22:22:22.179Z,76.47
2024-01-15T22:24:53.156Z,76.14
2024-01-15T22:27:24.605Z,76.98
2024-01-15T22:29:56.511Z,76.98
2024-01-15T22:32:30.074Z,75.79
2024-01-15T22:35:01.185Z,75.32
2024-01-15T22:37:32.392Z,75.03
2024-01-15T22:40:02.956Z,75.11
2024-01-15T22:42:33.407Z,75.37
2024-01-15T22:45:04.839Z,75.54
2024-01-15T22:47:35.517Z,75.65
2024-01-15T22:50:07.647Z,75.79
2024-01-15T22:52:40.131Z,75.75
2024-01-15T22:55:11.049Z,75.72
2024-01-15T22:57:41.591Z,75.79
2024-01-15T23:00:23.217Z,75.72
2024-01-15T23:02:55.456Z,76.05
2024-01-15T23:05:26.368Z,76.22
2024-01-15T23:07:56.996Z,76.39
2024-01-15T23:10:28.469Z,77.06
2024-01-15T23:12:59.029Z,76.75
2024-01-15T23:15:29.886Z,77.00
2024-01-15T23:18:00.905Z,76.94
2024-01-15T23:20:31.700Z,76.59
2024-01-15T23:23:02.462Z,75.99
2024-01-15T23:25:33.057Z,75.57
2024-01-15T23:28:03.599Z,75.05
2024-01-15T23:30:34.203Z,75.48
2024-01-15T23:33:05.517Z,74.99
2024-01-15T23:35:36.287Z,74.77
2024-01-15T23:38:09.815Z,74.71
2024-01-15T23:40:42.823Z,74.40
2024-01-15T23:43:14.176Z,75.46
2024-01-15T23:45:46.364Z,76.54
2024-01-15T23:48:17.077Z,77.05
2024-01-15T23:50:49.124Z,77.91
2024-01-15T23:53:19.755Z,77.97
2024-01-15T23:55:50.773Z,78.86
2024-01-15T23:58:21.365Z,79.54
